DW0425 Hajer DK current weather conditions

sailwx.info

Wind from 323 at 9 knots gusting 14

Air temperature 13.9° C
Dewpoint 5.3° C

Last reported at 2019-Sep-19 15:31 UTC.
Time now 2019-Sep-19 16:42 UTC

Location: N 54°58' E 008°41'.
View on Google Maps.

See reports from other nearby stations

  
Tides and Currents Weather Stations Pressure Air Temp Water Temp Dewpoint Dewpoint Depression Visibility Wind Speed Wind Dir Waves Ship Positions
date/time (UTC)wind fromknots sea level pressurealtimeterstation pressurevisibilityair tempwater tempwave heightnotes
2019-Sep-19 15:31 323 9 gusting 14 13.9
2019-Sep-19 15:16 311 8 gusting 13 13.9
2019-Sep-19 15:01 317 9 gusting 14 14.4
2019-Sep-19 14:16 312 9 gusting 14 14.4
2019-Sep-19 14:01 301 10 gusting 14 14.4
2019-Sep-19 13:46 322 9 gusting 15 15.0
2019-Sep-19 13:31 295 9 gusting 14 15.6
2019-Sep-19 13:16 292 10 gusting 16 15.0
2019-Sep-19 13:01 300 8 gusting 14 15.6
2019-Sep-19 12:46 326 9 gusting 13 15.6
2019-Sep-19 12:31 302 9 gusting 14 15.6
2019-Sep-19 12:16 329 9 gusting 14 15.6
2019-Sep-19 11:31 299 8 gusting 13 15.0
2019-Sep-19 11:01 315 9 gusting 14 15.0
2019-Sep-19 10:46 314 7 gusting 14 14.4
2019-Sep-19 10:31 327 11 gusting 17 14.4
2019-Sep-19 10:16 343 8 gusting 16 14.4
2019-Sep-19 09:46 317 9 gusting 13 14.4
2019-Sep-19 09:16 346 8 gusting 13 13.9
2019-Sep-19 09:01 344 7 gusting 13 13.9
2019-Sep-19 08:46 350 6 gusting 11 13.9
2019-Sep-19 08:31 327 6 gusting 11 13.3
2019-Sep-19 08:16 340 9 gusting 13 13.3
2019-Sep-19 08:01 325 10 gusting 14 13.3
2019-Sep-19 07:46 346 6 gusting 9 13.3
2019-Sep-19 07:31 338 6 gusting 13 12.8
2019-Sep-19 07:16 335 7 gusting 11 12.2
2019-Sep-19 06:31 324 4 gusting 6 11.1
2019-Sep-19 06:16 334 3 gusting 5 10.0
2019-Sep-19 05:01 338 3 gusting 6 9.4
2019-Sep-19 04:31 341 5 gusting 9 9.4
2019-Sep-19 03:46 329 4 gusting 6 10.0
2019-Sep-19 03:31 327 3 gusting 5 10.0
2019-Sep-19 03:01 333 3 gusting 6 10.0
2019-Sep-19 02:46 331 3 gusting 5 9.4
2019-Sep-19 02:16 331 3 gusting 5 10.0
2019-Sep-19 01:46 329 5 gusting 6 10.0
2019-Sep-19 01:16 331 3 gusting 5 10.0
2019-Sep-19 00:46 336 4 gusting 6 10.6
2019-Sep-19 00:31 335 4 gusting 6 10.0
2019-Sep-19 00:16 336 4 gusting 6 10.0
2019-Sep-18 23:46 330 4 gusting 6 10.0
2019-Sep-18 23:31 333 4 gusting 6 10.0
2019-Sep-18 23:16 330 5 gusting 9 10.6
2019-Sep-18 23:01 330 6 gusting 9 10.6
2019-Sep-18 21:31 331 5 gusting 9 10.6
2019-Sep-18 21:16 318 7 gusting 10 11.1
2019-Sep-18 21:01 321 7 gusting 11 11.1
2019-Sep-18 20:46 334 6 gusting 9 10.6
2019-Sep-18 20:31 330 8 gusting 13 11.1
2019-Sep-18 20:16 317 9 gusting 12 11.1
2019-Sep-18 20:01 311 10 gusting 18 11.1
2019-Sep-18 18:46 321 11 gusting 16 12.2
2019-Sep-18 18:16 315 13 gusting 22 12.2
2019-Sep-18 18:01 323 12 gusting 17 12.2
2019-Sep-18 17:46 319 11 gusting 19 12.2
2019-Sep-18 17:16 326 13 gusting 19 12.2
2019-Sep-18 17:01 334 12 gusting 19 12.2
2019-Sep-18 16:01 306 13 gusting 18 13.3
2019-Sep-18 15:46 307 13 gusting 20 13.3
2019-Sep-18 15:01 308 14 gusting 21 12.8
2019-Sep-18 13:46 323 14 gusting 21 13.9
2019-Sep-18 13:31 307 13 gusting 21 14.4
2019-Sep-18 13:16 265 14 gusting 21 14.4
2019-Sep-18 12:46 305 14 gusting 22 13.9
2019-Sep-18 12:31 298 13 gusting 21 13.9
2019-Sep-18 12:16 292 15 gusting 22 14.4
2019-Sep-18 11:46 346 13 gusting 19 13.3
2019-Sep-18 11:31 311 15 gusting 22 12.8
2019-Sep-18 11:16 287 13 gusting 24 13.3
2019-Sep-18 10:46 300 13 gusting 21 14.4
2019-Sep-18 10:01 327 11 gusting 16 12.2
2019-Sep-18 09:31 307 14 gusting 22 13.3
2019-Sep-18 09:16 304 13 gusting 21 13.3
2019-Sep-18 08:31 302 12 gusting 18 12.8
2019-Sep-18 08:16 319 13 gusting 21 13.3
2019-Sep-18 07:46 315 10 gusting 15 12.2
2019-Sep-18 07:31 323 13 gusting 20 12.2
2019-Sep-18 07:16 318 11 gusting 18 11.7
2019-Sep-18 07:01 311 12 gusting 19 12.2
2019-Sep-18 06:31 315 11 gusting 17 11.7
2019-Sep-18 06:01 319 10 gusting 16 11.7
2019-Sep-18 05:46 327 11 gusting 17 11.7
2019-Sep-18 05:16 313 13 gusting 20 11.7
2019-Sep-18 04:46 313 12 gusting 22 11.7
2019-Sep-18 04:31 312 10 gusting 18 11.7
2019-Sep-18 04:16 329 13 gusting 22 11.7
2019-Sep-18 03:46 306 12 gusting 17 11.7
2019-Sep-18 03:16 329 15 gusting 20 11.7
2019-Sep-18 03:01 315 15 gusting 22 12.2
2019-Sep-18 02:16 298 16 gusting 24 11.7
2019-Sep-18 02:01 320 10 gusting 15 11.7
2019-Sep-18 01:46 306 14 gusting 23 11.7
2019-Sep-18 01:31 325 14 gusting 24 11.7
2019-Sep-18 01:16 328 13 gusting 19 11.7
2019-Sep-18 00:16 338 12 gusting 18 11.7
2019-Sep-17 23:31 319 9 gusting 18 11.7
2019-Sep-17 23:16 329 13 gusting 19 11.7
2019-Sep-17 22:16 327 13 gusting 20 12.2
2019-Sep-17 22:01 331 12 gusting 18 12.2
2019-Sep-17 21:46 311 10 gusting 17 11.7
2019-Sep-17 20:46 317 13 gusting 19 12.2
2019-Sep-17 20:01 327 13 gusting 22 12.2
2019-Sep-17 19:31 313 14 gusting 20 12.2
2019-Sep-17 19:01 323 16 gusting 23 11.7
2019-Sep-17 18:46 316 15 gusting 26 11.7
2019-Sep-17 18:01 319 15 gusting 23 11.7
2019-Sep-17 17:46 339 17 gusting 28 11.7
2019-Sep-17 17:31 321 16 gusting 25 11.7
2019-Sep-17 17:16 318 19 gusting 28 11.7
2019-Sep-17 16:46 321 14 gusting 21 10.6
2019-Sep-17 16:31 319 15 gusting 24 9.4
2019-Sep-17 16:16 340 15 gusting 29 12.2
2019-Sep-17 16:01 323 18 gusting 32 12.8